Decoded Metar for UKOH ( in ) (IATA:) | Meteo·Mobile Aviation Weather
aviador You're here:

UKOH Decoded Metar

in
Report Time2019-07-21 18:00:00
UTC Time2019-07-21 18:34:25
Flight Rules vfr VFR
Wind280° at 4 kt
W.Decomp.*RWY 21: 1.4 kt HW 3.8 kt RCW
Visibility9999 m
Phenomena:N/A
Clouds:N/A
Expected CloudBase > 4,800 ft AGL from Temp-Dew spread
CeilingNone
Temp25°C
Dew Point13°C (47% RH)
AAT24.5°C
QNH1017 hPa
Raw Report
METAR UKOH 211800Z 28002MPS 240V310 CAVOK 25/13 Q1017
R03/CLRD// NOSIG=

Extra information for UKOH:More info

Social comments